Weather at Nanga Mawong Airstrip

Public forecast

Using degrees Celsius for public forecast. Weather courtesy of forecast.io.

Closest aviation weather report (METAR) to Nanga Mawong Airstrip

Closest report is Simanggang Airport, 112.0 nm (207.5 km) NNW. Retrieved 2020/11/30 16:00 UTC (42 minutes ago):

WBGY 301600Z AUTO 00000KT //// // ////// 23/23 Q1011

Closest aviation forecast (TAF) to Nanga Mawong Airstrip

Closest forecast is Kuching International Airport, 165.5 nm (306.4 km) NW. Retrieved 2020/11/30 12:12 UTC (4 hours ago):

TAF WBGG 301100Z 3012/0112 12005KT 9999 SCT020 TEMPO 0106/0110 3000 TSRA FEW015CB